الصفحة الرئيسية
METAR-TAF:

METAR-TAF

مطار :

مطار القيصومة المحلي

القيصومة, السعودية

دائرة عرض: 28-19N, خط طول: 046-07E, ارتفاع: 358 متر

مراقبة الطقس الحالي

تاريخ ووقت الإصدار 16 دقيقة قبل الساعة 04:00UTC
ريح 3 عقدة من الغرب/الشمال الغربي
درجة الحرارة 33°درجة مئوية
الرطوبة 13%
ضغط 1006 hPa
الرؤية 10 كم أو أكثر
الغيوم لا تقل 1500 م ولا وجود لمزنة ركامية السحاب الأسود

METAR: OEPA 190400Z 30003KT CAVOK 33/01 Q1006 NOSIG

زمن: 07:16 (04:16 UTC)

توقعات

تاريخ ووقت الإصدار 6ساعات و 1 دقيقة قبل الساعة 22:15UTC
التوقعات صالحة من19 الساعة 00 UTC إلى 20 الساعة 06 UTC
ريح 10 عقدة من الشمال
الرؤية 10 كم أو أكثر
الغيوم لا تقل 1500 م ولا وجود لمزنة ركامية السحاب الأسود
مؤقت
من 19 الساعة 06 UTC إلى 19 الساعة 15 UTC
ريح 20 عقدة من الشمال
الرؤية: 5000 متر
هبوب الغبار
نظرية الاحتمالات 30% :
مؤقت
من 19 الساعة 10 UTC إلى 19 الساعة 14 UTC
الرؤية: 3000 متر

TAF: OEPA 182215Z 1900/2006 36010KT CAVOK TEMPO 1906/1915 36020KT 5000 BLDU NSC PROB30 TEMPO 1910/1914 3000

أرصاد الطقس والتوقعات من أكثر من 4000 مطار (تقارير الطقس للمطار METAR والتنبؤ بالطقس بالمطارTAF).

المحطات المتاحة هي النقط الصفراء والحمراء على الخريطة.

حرك المؤشر فوق النقطة لمعرفة اسم المحطة.

ثم انقر لمعرفة أرصاد وتوقعات الطقس.

لتغيير الخارطة: اضغط على الأزرار الخضراء مع رمز الصليب الأسود للتكبير. على الزر الأخضر مع شرطة للتصغير، أو على الأسهم الخضراء للخرائط المجاورة.


METAR-TAF: